sensor_id;sensor_type;location;lat;lon;timestamp;P1;durP1;ratioP1;P2;durP2;ratioP2
16015;SDS011;8112;53.592;10.184;2023-06-05T00:04:05;8.83;;;4.20;;
16015;SDS011;8112;53.592;10.184;2023-06-05T00:09:06;7.43;;;4.57;;
16015;SDS011;8112;53.592;10.184;2023-06-05T00:14:08;6.33;;;4.03;;
16015;SDS011;8112;53.592;10.184;2023-06-05T00:19:11;7.70;;;4.73;;
16015;SDS011;8112;53.592;10.184;2023-06-05T00:24:13;7.13;;;4.40;;
16015;SDS011;8112;53.592;10.184;2023-06-05T00:29:15;5.60;;;4.60;;
16015;SDS011;8112;53.592;10.184;2023-06-05T00:34:18;6.03;;;4.17;;
16015;SDS011;8112;53.592;10.184;2023-06-05T00:39:23;5.97;;;4.30;;
16015;SDS011;8112;53.592;10.184;2023-06-05T00:44:25;4.60;;;4.13;;
16015;SDS011;8112;53.592;10.184;2023-06-05T00:49:28;8.57;;;4.63;;
16015;SDS011;8112;53.592;10.184;2023-06-05T00:54:30;7.33;;;4.30;;
16015;SDS011;8112;53.592;10.184;2023-06-05T00:59:32;6.50;;;4.20;;
16015;SDS011;8112;53.592;10.184;2023-06-05T01:04:36;5.57;;;4.10;;
16015;SDS011;8112;53.592;10.184;2023-06-05T01:09:40;8.07;;;4.30;;
16015;SDS011;8112;53.592;10.184;2023-06-05T01:14:43;7.17;;;4.50;;
16015;SDS011;8112;53.592;10.184;2023-06-05T01:19:50;5.40;;;4.30;;
16015;SDS011;8112;53.592;10.184;2023-06-05T01:24:54;5.07;;;4.50;;
16015;SDS011;8112;53.592;10.184;2023-06-05T01:30:00;7.83;;;4.60;;
16015;SDS011;8112;53.592;10.184;2023-06-05T01:35:05;8.17;;;4.27;;
16015;SDS011;8112;53.592;10.184;2023-06-05T01:40:11;6.17;;;4.67;;
16015;SDS011;8112;53.592;10.184;2023-06-05T01:45:15;7.80;;;4.70;;
16015;SDS011;8112;53.592;10.184;2023-06-05T01:50:18;6.10;;;4.43;;
16015;SDS011;8112;53.592;10.184;2023-06-05T01:55:22;6.37;;;4.90;;
16015;SDS011;8112;53.592;10.184;2023-06-05T02:00:24;6.40;;;5.50;;
16015;SDS011;8112;53.592;10.184;2023-06-05T02:05:27;8.40;;;5.13;;
16015;SDS011;8112;53.592;10.184;2023-06-05T02:10:31;6.23;;;5.00;;
16015;SDS011;8112;53.592;10.184;2023-06-05T02:15:32;8.20;;;5.63;;
16015;SDS011;8112;53.592;10.184;2023-06-05T02:20:35;8.90;;;5.23;;
16015;SDS011;8112;53.592;10.184;2023-06-05T02:25:38;7.50;;;5.47;;
16015;SDS011;8112;53.592;10.184;2023-06-05T02:30:40;7.57;;;6.00;;
16015;SDS011;8112;53.592;10.184;2023-06-05T02:35:45;7.00;;;5.63;;
16015;SDS011;8112;53.592;10.184;2023-06-05T02:40:48;10.53;;;5.50;;
16015;SDS011;8112;53.592;10.184;2023-06-05T02:45:50;10.00;;;6.10;;
16015;SDS011;8112;53.592;10.184;2023-06-05T02:50:52;7.00;;;6.30;;
16015;SDS011;8112;53.592;10.184;2023-06-05T02:55:55;8.33;;;5.93;;
16015;SDS011;8112;53.592;10.184;2023-06-05T03:01:02;8.30;;;6.70;;
16015;SDS011;8112;53.592;10.184;2023-06-05T03:06:11;8.13;;;5.90;;
16015;SDS011;8112;53.592;10.184;2023-06-05T03:11:21;9.20;;;6.93;;
16015;SDS011;8112;53.592;10.184;2023-06-05T03:16:25;9.63;;;6.30;;
16015;SDS011;8112;53.592;10.184;2023-06-05T03:21:33;10.37;;;6.40;;
16015;SDS011;8112;53.592;10.184;2023-06-05T03:26:38;8.80;;;6.77;;
16015;SDS011;8112;53.592;10.184;2023-06-05T03:31:41;10.17;;;7.27;;
16015;SDS011;8112;53.592;10.184;2023-06-05T03:36:44;9.87;;;7.37;;
16015;SDS011;8112;53.592;10.184;2023-06-05T03:41:49;10.30;;;7.03;;
16015;SDS011;8112;53.592;10.184;2023-06-05T03:46:51;11.60;;;7.43;;
16015;SDS011;8112;53.592;10.184;2023-06-05T03:51:53;8.60;;;7.60;;
16015;SDS011;8112;53.592;10.184;2023-06-05T03:56:59;10.73;;;7.13;;
16015;SDS011;8112;53.592;10.184;2023-06-05T04:02:02;7.90;;;7.13;;
16015;SDS011;8112;53.592;10.184;2023-06-05T04:07:05;11.70;;;7.60;;
16015;SDS011;8112;53.592;10.184;2023-06-05T04:12:08;12.07;;;8.40;;
16015;SDS011;8112;53.592;10.184;2023-06-05T04:17:10;11.73;;;8.37;;
16015;SDS011;8112;53.592;10.184;2023-06-05T04:22:14;9.67;;;8.20;;
16015;SDS011;8112;53.592;10.184;2023-06-05T04:27:17;9.10;;;7.80;;
16015;SDS011;8112;53.592;10.184;2023-06-05T04:32:20;14.87;;;8.40;;
16015;SDS011;8112;53.592;10.184;2023-06-05T04:37:22;11.63;;;8.40;;
16015;SDS011;8112;53.592;10.184;2023-06-05T04:42:25;10.80;;;8.03;;
16015;SDS011;8112;53.592;10.184;2023-06-05T04:47:27;10.47;;;8.00;;
16015;SDS011;8112;53.592;10.184;2023-06-05T04:52:29;10.47;;;8.10;;
16015;SDS011;8112;53.592;10.184;2023-06-05T04:57:34;12.97;;;8.53;;
16015;SDS011;8112;53.592;10.184;2023-06-05T05:02:38;12.97;;;8.07;;
16015;SDS011;8112;53.592;10.184;2023-06-05T05:07:40;9.87;;;7.43;;
16015;SDS011;8112;53.592;10.184;2023-06-05T05:12:44;10.87;;;7.73;;
16015;SDS011;8112;53.592;10.184;2023-06-05T05:17:48;10.17;;;7.43;;
16015;SDS011;8112;53.592;10.184;2023-06-05T05:22:52;14.40;;;7.50;;
16015;SDS011;8112;53.592;10.184;2023-06-05T05:27:55;10.43;;;7.13;;
16015;SDS011;8112;53.592;10.184;2023-06-05T05:32:57;12.37;;;8.23;;
16015;SDS011;8112;53.592;10.184;2023-06-05T05:37:58;10.87;;;7.37;;
16015;SDS011;8112;53.592;10.184;2023-06-05T05:43:02;11.03;;;6.87;;
16015;SDS011;8112;53.592;10.184;2023-06-05T05:48:04;10.80;;;7.43;;
16015;SDS011;8112;53.592;10.184;2023-06-05T05:53:06;10.53;;;7.00;;
16015;SDS011;8112;53.592;10.184;2023-06-05T05:58:09;14.00;;;6.80;;
16015;SDS011;8112;53.592;10.184;2023-06-05T06:03:10;9.60;;;6.30;;
16015;SDS011;8112;53.592;10.184;2023-06-05T06:08:13;8.27;;;6.10;;
16015;SDS011;8112;53.592;10.184;2023-06-05T06:13:16;13.87;;;6.43;;
16015;SDS011;8112;53.592;10.184;2023-06-05T06:18:18;12.53;;;7.07;;
16015;SDS011;8112;53.592;10.184;2023-06-05T06:23:20;8.60;;;6.20;;
16015;SDS011;8112;53.592;10.184;2023-06-05T06:28:23;9.23;;;5.73;;
16015;SDS011;8112;53.592;10.184;2023-06-05T06:33:25;8.40;;;5.50;;
16015;SDS011;8112;53.592;10.184;2023-06-05T06:38:26;10.53;;;6.10;;
16015;SDS011;8112;53.592;10.184;2023-06-05T06:43:31;7.10;;;4.87;;
16015;SDS011;8112;53.592;10.184;2023-06-05T06:48:38;5.30;;;4.20;;
16015;SDS011;8112;53.592;10.184;2023-06-05T06:53:40;6.23;;;4.27;;
16015;SDS011;8112;53.592;10.184;2023-06-05T06:58:43;7.13;;;4.03;;
16015;SDS011;8112;53.592;10.184;2023-06-05T07:03:45;7.07;;;4.00;;
16015;SDS011;8112;53.592;10.184;2023-06-05T07:08:47;5.30;;;3.93;;
16015;SDS011;8112;53.592;10.184;2023-06-05T07:13:52;6.43;;;3.63;;
16015;SDS011;8112;53.592;10.184;2023-06-05T07:18:54;6.73;;;3.90;;
16015;SDS011;8112;53.592;10.184;2023-06-05T07:23:56;8.03;;;3.80;;
16015;SDS011;8112;53.592;10.184;2023-06-05T07:29:00;5.60;;;3.70;;
16015;SDS011;8112;53.592;10.184;2023-06-05T07:34:02;5.70;;;3.00;;
16015;SDS011;8112;53.592;10.184;2023-06-05T07:39:04;7.20;;;3.33;;
16015;SDS011;8112;53.592;10.184;2023-06-05T07:44:08;4.07;;;3.00;;
16015;SDS011;8112;53.592;10.184;2023-06-05T07:49:11;5.77;;;2.73;;
16015;SDS011;8112;53.592;10.184;2023-06-05T07:54:13;4.00;;;2.93;;
16015;SDS011;8112;53.592;10.184;2023-06-05T07:59:18;5.83;;;3.63;;
16015;SDS011;8112;53.592;10.184;2023-06-05T08:04:24;5.77;;;3.37;;
16015;SDS011;8112;53.592;10.184;2023-06-05T08:09:27;5.03;;;3.40;;
16015;SDS011;8112;53.592;10.184;2023-06-05T08:14:31;4.30;;;3.13;;
16015;SDS011;8112;53.592;10.184;2023-06-05T08:19:33;5.70;;;2.93;;
16015;SDS011;8112;53.592;10.184;2023-06-05T08:24:35;4.27;;;2.40;;
16015;SDS011;8112;53.592;10.184;2023-06-05T08:29:40;5.73;;;2.70;;
16015;SDS011;8112;53.592;10.184;2023-06-05T08:34:42;6.27;;;2.93;;
16015;SDS011;8112;53.592;10.184;2023-06-05T08:39:48;5.30;;;2.77;;
16015;SDS011;8112;53.592;10.184;2023-06-05T08:44:53;5.37;;;2.93;;
16015;SDS011;8112;53.592;10.184;2023-06-05T08:49:55;4.83;;;3.00;;
16015;SDS011;8112;53.592;10.184;2023-06-05T08:55:00;3.30;;;2.07;;
16015;SDS011;8112;53.592;10.184;2023-06-05T09:00:07;6.07;;;2.47;;
16015;SDS011;8112;53.592;10.184;2023-06-05T09:05:11;4.23;;;2.07;;
16015;SDS011;8112;53.592;10.184;2023-06-05T09:10:23;3.73;;;2.30;;
16015;SDS011;8112;53.592;10.184;2023-06-05T09:15:28;5.03;;;2.00;;
16015;SDS011;8112;53.592;10.184;2023-06-05T09:20:30;4.00;;;2.20;;
16015;SDS011;8112;53.592;10.184;2023-06-05T09:25:44;3.00;;;2.00;;
16015;SDS011;8112;53.592;10.184;2023-06-05T09:30:59;5.43;;;2.03;;
16015;SDS011;8112;53.592;10.184;2023-06-05T09:36:02;5.37;;;2.07;;
16015;SDS011;8112;53.592;10.184;2023-06-05T09:41:06;3.00;;;2.03;;
16015;SDS011;8112;53.592;10.184;2023-06-05T09:46:10;3.80;;;2.23;;
16015;SDS011;8112;53.592;10.184;2023-06-05T09:51:13;7.10;;;2.50;;
16015;SDS011;8112;53.592;10.184;2023-06-05T09:56:19;3.87;;;2.10;;
16015;SDS011;8112;53.592;10.184;2023-06-05T10:01:24;2.40;;;1.93;;
16015;SDS011;8112;53.592;10.184;2023-06-05T10:06:28;4.63;;;2.07;;
16015;SDS011;8112;53.592;10.184;2023-06-05T10:11:30;2.67;;;2.07;;
16015;SDS011;8112;53.592;10.184;2023-06-05T10:16:34;4.47;;;1.90;;
16015;SDS011;8112;53.592;10.184;2023-06-05T10:21:37;6.68;;;2.20;;
16015;SDS011;8112;53.592;10.184;2023-06-05T10:26:44;5.03;;;2.13;;
16015;SDS011;8112;53.592;10.184;2023-06-05T10:31:59;8.50;;;2.45;;
16015;SDS011;8112;53.592;10.184;2023-06-05T10:42:35;3.95;;;1.92;;
16015;SDS011;8112;53.592;10.184;2023-06-05T10:47:52;5.18;;;1.77;;
16015;SDS011;8112;53.592;10.184;2023-06-05T10:52:54;3.25;;;1.33;;
16015;SDS011;8112;53.592;10.184;2023-06-05T10:58:09;6.00;;;1.90;;
16015;SDS011;8112;53.592;10.184;2023-06-05T11:03:15;2.53;;;1.80;;
16015;SDS011;8112;53.592;10.184;2023-06-05T11:08:17;3.13;;;1.77;;
16015;SDS011;8112;53.592;10.184;2023-06-05T11:13:20;3.63;;;1.90;;
16015;SDS011;8112;53.592;10.184;2023-06-05T11:18:39;2.53;;;1.50;;
16015;SDS011;8112;53.592;10.184;2023-06-05T11:23:41;3.65;;;1.58;;
16015;SDS011;8112;53.592;10.184;2023-06-05T11:29:21;5.63;;;1.80;;
16015;SDS011;8112;53.592;10.184;2023-06-05T11:34:27;2.22;;;1.50;;
16015;SDS011;8112;53.592;10.184;2023-06-05T11:39:41;2.70;;;1.63;;
16015;SDS011;8112;53.592;10.184;2023-06-05T11:44:47;3.38;;;1.55;;
16015;SDS011;8112;53.592;10.184;2023-06-05T11:49:51;2.60;;;1.65;;
16015;SDS011;8112;53.592;10.184;2023-06-05T11:54:53;4.00;;;1.90;;
16015;SDS011;8112;53.592;10.184;2023-06-05T12:00:06;2.42;;;1.83;;
16015;SDS011;8112;53.592;10.184;2023-06-05T12:05:11;4.13;;;1.92;;
16015;SDS011;8112;53.592;10.184;2023-06-05T12:10:14;4.00;;;1.67;;
16015;SDS011;8112;53.592;10.184;2023-06-05T12:15:17;3.28;;;1.52;;
16015;SDS011;8112;53.592;10.184;2023-06-05T12:20:21;5.03;;;2.05;;
16015;SDS011;8112;53.592;10.184;2023-06-05T12:25:23;3.27;;;1.80;;
16015;SDS011;8112;53.592;10.184;2023-06-05T12:30:25;2.97;;;1.90;;
16015;SDS011;8112;53.592;10.184;2023-06-05T12:35:43;5.70;;;1.77;;
16015;SDS011;8112;53.592;10.184;2023-06-05T12:40:45;1.40;;;1.30;;
16015;SDS011;8112;53.592;10.184;2023-06-05T12:45:47;9.23;;;2.03;;
16015;SDS011;8112;53.592;10.184;2023-06-05T12:50:51;1.88;;;1.55;;
16015;SDS011;8112;53.592;10.184;2023-06-05T12:55:55;4.38;;;1.73;;
16015;SDS011;8112;53.592;10.184;2023-06-05T13:00:57;1.73;;;1.52;;
16015;SDS011;8112;53.592;10.184;2023-06-05T13:06:01;3.28;;;1.80;;
16015;SDS011;8112;53.592;10.184;2023-06-05T13:11:04;3.97;;;1.55;;
16015;SDS011;8112;53.592;10.184;2023-06-05T13:16:06;2.22;;;1.73;;
16015;SDS011;8112;53.592;10.184;2023-06-05T13:21:10;2.78;;;1.50;;
16015;SDS011;8112;53.592;10.184;2023-06-05T13:26:12;4.45;;;2.10;;
16015;SDS011;8112;53.592;10.184;2023-06-05T13:31:14;2.00;;;1.80;;
16015;SDS011;8112;53.592;10.184;2023-06-05T13:36:18;3.88;;;1.85;;
16015;SDS011;8112;53.592;10.184;2023-06-05T13:41:21;2.42;;;1.60;;
16015;SDS011;8112;53.592;10.184;2023-06-05T13:46:23;3.65;;;2.15;;
16015;SDS011;8112;53.592;10.184;2023-06-05T13:51:27;5.43;;;2.10;;
16015;SDS011;8112;53.592;10.184;2023-06-05T13:56:29;1.67;;;1.58;;
16015;SDS011;8112;53.592;10.184;2023-06-05T14:01:31;2.50;;;1.40;;
16015;SDS011;8112;53.592;10.184;2023-06-05T14:06:35;2.58;;;1.88;;
16015;SDS011;8112;53.592;10.184;2023-06-05T14:11:39;2.63;;;1.70;;
16015;SDS011;8112;53.592;10.184;2023-06-05T14:16:44;4.47;;;2.10;;
16015;SDS011;8112;53.592;10.184;2023-06-05T14:21:49;3.20;;;2.00;;
16015;SDS011;8112;53.592;10.184;2023-06-05T14:26:55;3.25;;;1.80;;
16015;SDS011;8112;53.592;10.184;2023-06-05T14:31:58;4.47;;;1.60;;
16015;SDS011;8112;53.592;10.184;2023-06-05T14:37:01;3.20;;;1.80;;
16015;SDS011;8112;53.592;10.184;2023-06-05T14:42:03;3.22;;;1.80;;
16015;SDS011;8112;53.592;10.184;2023-06-05T14:47:06;7.15;;;2.03;;
16015;SDS011;8112;53.592;10.184;2023-06-05T14:52:09;3.22;;;2.10;;
16015;SDS011;8112;53.592;10.184;2023-06-05T14:57:11;4.10;;;1.80;;
16015;SDS011;8112;53.592;10.184;2023-06-05T15:02:13;2.40;;;1.43;;
16015;SDS011;8112;53.592;10.184;2023-06-05T15:07:20;6.47;;;2.10;;
16015;SDS011;8112;53.592;10.184;2023-06-05T15:12:22;4.95;;;1.88;;
16015;SDS011;8112;53.592;10.184;2023-06-05T15:17:24;3.55;;;1.70;;
16015;SDS011;8112;53.592;10.184;2023-06-05T15:22:27;2.30;;;2.03;;
16015;SDS011;8112;53.592;10.184;2023-06-05T15:27:30;2.78;;;2.20;;
16015;SDS011;8112;53.592;10.184;2023-06-05T15:32:32;2.80;;;1.98;;
16015;SDS011;8112;53.592;10.184;2023-06-05T15:37:36;5.40;;;1.85;;
16015;SDS011;8112;53.592;10.184;2023-06-05T15:42:38;6.03;;;1.98;;
16015;SDS011;8112;53.592;10.184;2023-06-05T15:47:39;2.97;;;1.90;;
16015;SDS011;8112;53.592;10.184;2023-06-05T15:52:43;1.98;;;1.75;;
16015;SDS011;8112;53.592;10.184;2023-06-05T15:57:45;5.53;;;1.50;;
16015;SDS011;8112;53.592;10.184;2023-06-05T16:02:48;4.03;;;1.80;;
16015;SDS011;8112;53.592;10.184;2023-06-05T16:07:52;4.03;;;1.95;;
16015;SDS011;8112;53.592;10.184;2023-06-05T16:12:53;4.50;;;1.50;;
16015;SDS011;8112;53.592;10.184;2023-06-05T16:17:55;2.10;;;1.42;;
16015;SDS011;8112;53.592;10.184;2023-06-05T16:22:59;1.58;;;1.48;;
16015;SDS011;8112;53.592;10.184;2023-06-05T16:28:02;2.10;;;1.33;;
16015;SDS011;8112;53.592;10.184;2023-06-05T16:33:04;4.20;;;1.80;;
16015;SDS011;8112;53.592;10.184;2023-06-05T16:38:08;3.28;;;1.75;;
16015;SDS011;8112;53.592;10.184;2023-06-05T16:43:10;3.58;;;1.50;;
16015;SDS011;8112;53.592;10.184;2023-06-05T16:48:12;3.72;;;1.83;;
16015;SDS011;8112;53.592;10.184;2023-06-05T16:53:15;2.42;;;1.55;;
16015;SDS011;8112;53.592;10.184;2023-06-05T16:58:17;2.22;;;1.60;;
16015;SDS011;8112;53.592;10.184;2023-06-05T17:03:20;2.42;;;1.52;;
16015;SDS011;8112;53.592;10.184;2023-06-05T17:08:24;1.90;;;1.60;;
16015;SDS011;8112;53.592;10.184;2023-06-05T17:13:25;4.82;;;1.50;;
16015;SDS011;8112;53.592;10.184;2023-06-05T17:18:27;2.35;;;1.58;;
16015;SDS011;8112;53.592;10.184;2023-06-05T17:23:31;4.50;;;2.05;;
16015;SDS011;8112;53.592;10.184;2023-06-05T17:28:33;2.63;;;1.92;;
16015;SDS011;8112;53.592;10.184;2023-06-05T17:33:35;2.88;;;2.00;;
16015;SDS011;8112;53.592;10.184;2023-06-05T17:38:43;3.97;;;2.00;;
16015;SDS011;8112;53.592;10.184;2023-06-05T17:43:52;3.72;;;2.33;;
16015;SDS011;8112;53.592;10.184;2023-06-05T17:48:55;4.40;;;2.50;;
16015;SDS011;8112;53.592;10.184;2023-06-05T17:53:58;4.73;;;2.47;;
16015;SDS011;8112;53.592;10.184;2023-06-05T17:59:00;8.63;;;2.73;;
16015;SDS011;8112;53.592;10.184;2023-06-05T18:04:02;4.63;;;2.50;;
16015;SDS011;8112;53.592;10.184;2023-06-05T18:09:06;4.77;;;2.77;;
16015;SDS011;8112;53.592;10.184;2023-06-05T18:14:08;4.50;;;2.40;;
16015;SDS011;8112;53.592;10.184;2023-06-05T18:19:10;5.43;;;2.43;;
16015;SDS011;8112;53.592;10.184;2023-06-05T18:24:15;4.20;;;2.67;;
16015;SDS011;8112;53.592;10.184;2023-06-05T18:29:17;6.63;;;2.40;;
16015;SDS011;8112;53.592;10.184;2023-06-05T18:34:19;7.80;;;2.83;;
16015;SDS011;8112;53.592;10.184;2023-06-05T18:39:23;6.87;;;2.80;;
16015;SDS011;8112;53.592;10.184;2023-06-05T18:44:25;6.37;;;2.33;;
16015;SDS011;8112;53.592;10.184;2023-06-05T18:49:27;2.57;;;2.33;;
16015;SDS011;8112;53.592;10.184;2023-06-05T18:54:30;3.57;;;2.77;;
16015;SDS011;8112;53.592;10.184;2023-06-05T18:59:32;5.57;;;2.53;;
16015;SDS011;8112;53.592;10.184;2023-06-05T19:04:34;5.43;;;2.60;;
16015;SDS011;8112;53.592;10.184;2023-06-05T19:09:38;4.20;;;2.53;;
16015;SDS011;8112;53.592;10.184;2023-06-05T19:14:40;4.57;;;2.30;;
16015;SDS011;8112;53.592;10.184;2023-06-05T19:19:42;4.43;;;2.80;;
16015;SDS011;8112;53.592;10.184;2023-06-05T19:24:47;4.50;;;2.40;;
16015;SDS011;8112;53.592;10.184;2023-06-05T19:29:49;6.33;;;2.87;;
16015;SDS011;8112;53.592;10.184;2023-06-05T19:34:59;3.97;;;2.70;;
16015;SDS011;8112;53.592;10.184;2023-06-05T19:40:04;5.50;;;2.70;;
16015;SDS011;8112;53.592;10.184;2023-06-05T19:45:07;4.20;;;2.70;;
16015;SDS011;8112;53.592;10.184;2023-06-05T19:50:09;4.57;;;2.60;;
16015;SDS011;8112;53.592;10.184;2023-06-05T19:55:15;4.87;;;2.80;;
16015;SDS011;8112;53.592;10.184;2023-06-05T20:00:18;4.37;;;2.50;;
16015;SDS011;8112;53.592;10.184;2023-06-05T20:05:20;5.77;;;3.10;;
16015;SDS011;8112;53.592;10.184;2023-06-05T20:10:24;8.10;;;2.80;;
16015;SDS011;8112;53.592;10.184;2023-06-05T20:15:26;7.13;;;2.97;;
16015;SDS011;8112;53.592;10.184;2023-06-05T20:20:29;5.93;;;3.00;;
16015;SDS011;8112;53.592;10.184;2023-06-05T20:25:34;6.00;;;3.20;;
16015;SDS011;8112;53.592;10.184;2023-06-05T20:30:36;4.83;;;2.87;;
16015;SDS011;8112;53.592;10.184;2023-06-05T20:35:38;4.93;;;2.90;;
16015;SDS011;8112;53.592;10.184;2023-06-05T20:40:42;4.43;;;2.90;;
16015;SDS011;8112;53.592;10.184;2023-06-05T20:45:50;3.57;;;2.80;;
16015;SDS011;8112;53.592;10.184;2023-06-05T20:50:54;5.00;;;2.60;;
16015;SDS011;8112;53.592;10.184;2023-06-05T20:55:59;4.00;;;2.77;;
16015;SDS011;8112;53.592;10.184;2023-06-05T21:01:01;4.67;;;2.80;;
16015;SDS011;8112;53.592;10.184;2023-06-05T21:06:03;7.20;;;3.50;;
16015;SDS011;8112;53.592;10.184;2023-06-05T21:11:07;4.30;;;2.83;;
16015;SDS011;8112;53.592;10.184;2023-06-05T21:16:09;5.00;;;3.10;;
16015;SDS011;8112;53.592;10.184;2023-06-05T21:21:12;6.50;;;3.10;;
16015;SDS011;8112;53.592;10.184;2023-06-05T21:26:16;6.83;;;3.33;;
16015;SDS011;8112;53.592;10.184;2023-06-05T21:31:21;7.57;;;3.70;;
16015;SDS011;8112;53.592;10.184;2023-06-05T21:36:23;6.97;;;3.67;;
16015;SDS011;8112;53.592;10.184;2023-06-05T21:41:26;4.03;;;3.30;;
16015;SDS011;8112;53.592;10.184;2023-06-05T21:46:28;9.37;;;3.83;;
16015;SDS011;8112;53.592;10.184;2023-06-05T21:51:30;4.77;;;3.30;;
16015;SDS011;8112;53.592;10.184;2023-06-05T21:56:35;5.90;;;3.83;;
16015;SDS011;8112;53.592;10.184;2023-06-05T22:01:37;8.07;;;3.40;;
16015;SDS011;8112;53.592;10.184;2023-06-05T22:06:39;4.10;;;3.37;;
16015;SDS011;8112;53.592;10.184;2023-06-05T22:11:42;4.57;;;3.90;;
16015;SDS011;8112;53.592;10.184;2023-06-05T22:16:45;4.37;;;3.87;;
16015;SDS011;8112;53.592;10.184;2023-06-05T22:21:47;5.47;;;3.77;;
16015;SDS011;8112;53.592;10.184;2023-06-05T22:26:52;5.17;;;4.00;;
16015;SDS011;8112;53.592;10.184;2023-06-05T22:31:53;7.00;;;3.70;;
16015;SDS011;8112;53.592;10.184;2023-06-05T22:36:57;5.83;;;4.07;;
16015;SDS011;8112;53.592;10.184;2023-06-05T22:42:05;4.60;;;3.77;;
16015;SDS011;8112;53.592;10.184;2023-06-05T22:47:07;4.50;;;3.50;;
16015;SDS011;8112;53.592;10.184;2023-06-05T22:52:11;5.40;;;3.60;;
16015;SDS011;8112;53.592;10.184;2023-06-05T22:57:16;8.07;;;3.87;;
16015;SDS011;8112;53.592;10.184;2023-06-05T23:02:19;4.47;;;3.77;;
16015;SDS011;8112;53.592;10.184;2023-06-05T23:07:21;5.30;;;3.40;;
16015;SDS011;8112;53.592;10.184;2023-06-05T23:12:25;4.83;;;3.57;;
16015;SDS011;8112;53.592;10.184;2023-06-05T23:17:30;3.87;;;3.33;;
16015;SDS011;8112;53.592;10.184;2023-06-05T23:22:32;5.07;;;3.47;;
16015;SDS011;8112;53.592;10.184;2023-06-05T23:27:35;6.43;;;4.20;;
16015;SDS011;8112;53.592;10.184;2023-06-05T23:32:37;4.00;;;3.60;;
16015;SDS011;8112;53.592;10.184;2023-06-05T23:37:41;4.03;;;3.43;;
16015;SDS011;8112;53.592;10.184;2023-06-05T23:42:45;5.83;;;3.80;;
16015;SDS011;8112;53.592;10.184;2023-06-05T23:47:49;6.77;;;4.27;;
16015;SDS011;8112;53.592;10.184;2023-06-05T23:52:52;5.83;;;4.03;;
16015;SDS011;8112;53.592;10.184;2023-06-05T23:57:57;4.47;;;3.80;;
